sensor_id;sensor_type;location;lat;lon;timestamp;P1;durP1;ratioP1;P2;durP2;ratioP2
28623;SDS011;15813;46.932;19.658;2023-07-09T00:00:18;805.13;;;422.90;;
28623;SDS011;15813;46.932;19.658;2023-07-09T00:02:44;802.65;;;403.20;;
28623;SDS011;15813;46.932;19.658;2023-07-09T00:05:13;805.00;;;421.13;;
28623;SDS011;15813;46.932;19.658;2023-07-09T00:10:05;793.15;;;394.67;;
28623;SDS011;15813;46.932;19.658;2023-07-09T00:12:37;805.05;;;407.42;;
28623;SDS011;15813;46.932;19.658;2023-07-09T00:15:03;805.90;;;414.90;;
28623;SDS011;15813;46.932;19.658;2023-07-09T00:17:30;808.97;;;425.67;;
28623;SDS011;15813;46.932;19.658;2023-07-09T00:19:56;814.13;;;427.48;;
28623;SDS011;15813;46.932;19.658;2023-07-09T00:22:21;806.80;;;422.45;;
28623;SDS011;15813;46.932;19.658;2023-07-09T00:24:48;806.28;;;425.20;;
28623;SDS011;15813;46.932;19.658;2023-07-09T00:27:15;801.60;;;412.30;;
28623;SDS011;15813;46.932;19.658;2023-07-09T00:29:41;806.55;;;419.52;;
28623;SDS011;15813;46.932;19.658;2023-07-09T00:32:13;803.65;;;409.65;;
28623;SDS011;15813;46.932;19.658;2023-07-09T00:34:41;810.25;;;435.88;;
28623;SDS011;15813;46.932;19.658;2023-07-09T00:37:10;807.90;;;422.17;;
28623;SDS011;15813;46.932;19.658;2023-07-09T00:39:36;803.80;;;403.63;;
28623;SDS011;15813;46.932;19.658;2023-07-09T00:42:02;807.47;;;415.63;;
28623;SDS011;15813;46.932;19.658;2023-07-09T00:44:30;814.95;;;429.23;;
28623;SDS011;15813;46.932;19.658;2023-07-09T00:49:32;810.88;;;412.88;;
28623;SDS011;15813;46.932;19.658;2023-07-09T00:52:01;811.75;;;426.52;;
28623;SDS011;15813;46.932;19.658;2023-07-09T00:54:35;797.50;;;388.88;;
28623;SDS011;15813;46.932;19.658;2023-07-09T00:57:06;809.05;;;418.85;;
28623;SDS011;15813;46.932;19.658;2023-07-09T00:59:33;804.38;;;404.67;;
28623;SDS011;15813;46.932;19.658;2023-07-09T01:01:59;805.03;;;409.40;;
28623;SDS011;15813;46.932;19.658;2023-07-09T01:04:25;810.75;;;406.15;;
28623;SDS011;15813;46.932;19.658;2023-07-09T01:06:52;800.63;;;392.20;;
28623;SDS011;15813;46.932;19.658;2023-07-09T01:09:18;794.80;;;385.35;;
28623;SDS011;15813;46.932;19.658;2023-07-09T01:11:43;792.33;;;391.52;;
28623;SDS011;15813;46.932;19.658;2023-07-09T01:14:10;796.35;;;392.15;;
28623;SDS011;15813;46.932;19.658;2023-07-09T01:16:39;794.15;;;390.33;;
28623;SDS011;15813;46.932;19.658;2023-07-09T01:19:05;791.88;;;383.58;;
28623;SDS011;15813;46.932;19.658;2023-07-09T01:21:31;783.85;;;368.88;;
28623;SDS011;15813;46.932;19.658;2023-07-09T01:23:57;795.20;;;392.67;;
28623;SDS011;15813;46.932;19.658;2023-07-09T01:26:24;798.10;;;402.80;;
28623;SDS011;15813;46.932;19.658;2023-07-09T01:28:50;797.45;;;395.77;;
28623;SDS011;15813;46.932;19.658;2023-07-09T01:31:16;794.08;;;387.85;;
28623;SDS011;15813;46.932;19.658;2023-07-09T01:33:42;800.70;;;391.88;;
28623;SDS011;15813;46.932;19.658;2023-07-09T01:36:10;803.22;;;390.27;;
28623;SDS011;15813;46.932;19.658;2023-07-09T01:38:35;794.78;;;377.45;;
28623;SDS011;15813;46.932;19.658;2023-07-09T01:41:01;799.08;;;389.45;;
28623;SDS011;15813;46.932;19.658;2023-07-09T01:43:27;799.08;;;390.42;;
28623;SDS011;15813;46.932;19.658;2023-07-09T01:45:52;798.05;;;380.63;;
28623;SDS011;15813;46.932;19.658;2023-07-09T01:48:18;795.38;;;381.38;;
28623;SDS011;15813;46.932;19.658;2023-07-09T01:50:45;802.25;;;395.77;;
28623;SDS011;15813;46.932;19.658;2023-07-09T01:53:12;797.05;;;382.73;;
28623;SDS011;15813;46.932;19.658;2023-07-09T01:55:37;791.28;;;377.95;;
28623;SDS011;15813;46.932;19.658;2023-07-09T01:58:03;776.53;;;362.05;;
28623;SDS011;15813;46.932;19.658;2023-07-09T02:00:33;781.70;;;355.83;;
28623;SDS011;15813;46.932;19.658;2023-07-09T02:02:59;780.33;;;361.30;;
28623;SDS011;15813;46.932;19.658;2023-07-09T02:05:27;784.25;;;371.35;;
28623;SDS011;15813;46.932;19.658;2023-07-09T02:07:52;779.42;;;362.42;;
28623;SDS011;15813;46.932;19.658;2023-07-09T02:10:18;798.83;;;385.55;;
28623;SDS011;15813;46.932;19.658;2023-07-09T02:12:43;793.25;;;384.13;;
28623;SDS011;15813;46.932;19.658;2023-07-09T02:15:09;795.00;;;387.40;;
28623;SDS011;15813;46.932;19.658;2023-07-09T02:17:35;798.25;;;388.75;;
28623;SDS011;15813;46.932;19.658;2023-07-09T02:20:00;800.63;;;394.20;;
28623;SDS011;15813;46.932;19.658;2023-07-09T02:22:25;798.55;;;391.67;;
28623;SDS011;15813;46.932;19.658;2023-07-09T02:24:50;791.65;;;387.73;;
28623;SDS011;15813;46.932;19.658;2023-07-09T02:27:18;797.40;;;396.40;;
28623;SDS011;15813;46.932;19.658;2023-07-09T02:29:44;793.15;;;384.02;;
28623;SDS011;15813;46.932;19.658;2023-07-09T02:32:09;790.13;;;377.40;;
28623;SDS011;15813;46.932;19.658;2023-07-09T02:34:37;786.78;;;372.70;;
28623;SDS011;15813;46.932;19.658;2023-07-09T02:37:03;789.95;;;372.10;;
28623;SDS011;15813;46.932;19.658;2023-07-09T02:39:28;792.50;;;380.23;;
28623;SDS011;15813;46.932;19.658;2023-07-09T02:41:53;794.38;;;391.70;;
28623;SDS011;15813;46.932;19.658;2023-07-09T02:44:19;780.35;;;362.65;;
28623;SDS011;15813;46.932;19.658;2023-07-09T02:46:44;785.10;;;359.45;;
28623;SDS011;15813;46.932;19.658;2023-07-09T02:49:10;780.28;;;360.75;;
28623;SDS011;15813;46.932;19.658;2023-07-09T02:51:36;782.80;;;359.38;;
28623;SDS011;15813;46.932;19.658;2023-07-09T02:54:02;785.33;;;360.60;;
28623;SDS011;15813;46.932;19.658;2023-07-09T02:56:27;779.17;;;362.67;;
28623;SDS011;15813;46.932;19.658;2023-07-09T02:58:53;783.78;;;364.63;;
28623;SDS011;15813;46.932;19.658;2023-07-09T03:01:18;776.03;;;348.23;;
28623;SDS011;15813;46.932;19.658;2023-07-09T03:03:49;769.13;;;346.70;;
28623;SDS011;15813;46.932;19.658;2023-07-09T03:06:16;763.67;;;340.42;;
28623;SDS011;15813;46.932;19.658;2023-07-09T03:08:41;769.20;;;346.27;;
28623;SDS011;15813;46.932;19.658;2023-07-09T03:11:10;764.25;;;340.48;;
28623;SDS011;15813;46.932;19.658;2023-07-09T03:16:01;778.50;;;352.20;;
28623;SDS011;15813;46.932;19.658;2023-07-09T03:18:26;757.60;;;320.92;;
28623;SDS011;15813;46.932;19.658;2023-07-09T03:20:51;757.47;;;319.33;;
28623;SDS011;15813;46.932;19.658;2023-07-09T03:23:16;747.92;;;316.17;;
28623;SDS011;15813;46.932;19.658;2023-07-09T03:25:42;772.97;;;342.77;;
28623;SDS011;15813;46.932;19.658;2023-07-09T03:28:08;771.10;;;353.83;;
28623;SDS011;15813;46.932;19.658;2023-07-09T03:30:33;759.13;;;328.50;;
28623;SDS011;15813;46.932;19.658;2023-07-09T03:32:58;768.53;;;336.10;;
28623;SDS011;15813;46.932;19.658;2023-07-09T03:35:25;757.30;;;332.00;;
28623;SDS011;15813;46.932;19.658;2023-07-09T03:37:50;766.58;;;349.70;;
28623;SDS011;15813;46.932;19.658;2023-07-09T03:40:20;775.63;;;364.33;;
28623;SDS011;15813;46.932;19.658;2023-07-09T03:42:45;784.97;;;366.73;;
28623;SDS011;15813;46.932;19.658;2023-07-09T03:45:10;789.25;;;378.70;;
28623;SDS011;15813;46.932;19.658;2023-07-09T03:47:36;787.97;;;364.55;;
28623;SDS011;15813;46.932;19.658;2023-07-09T03:50:01;791.20;;;365.52;;
28623;SDS011;15813;46.932;19.658;2023-07-09T03:52:26;786.83;;;373.27;;
28623;SDS011;15813;46.932;19.658;2023-07-09T03:54:52;789.22;;;365.30;;
28623;SDS011;15813;46.932;19.658;2023-07-09T03:57:17;786.17;;;378.20;;
28623;SDS011;15813;46.932;19.658;2023-07-09T03:59:42;791.67;;;372.45;;
28623;SDS011;15813;46.932;19.658;2023-07-09T04:02:07;792.05;;;378.35;;
28623;SDS011;15813;46.932;19.658;2023-07-09T04:04:33;800.47;;;388.05;;
28623;SDS011;15813;46.932;19.658;2023-07-09T04:06:58;794.85;;;396.40;;
28623;SDS011;15813;46.932;19.658;2023-07-09T04:09:23;796.72;;;394.85;;
28623;SDS011;15813;46.932;19.658;2023-07-09T04:11:49;799.38;;;396.73;;
28623;SDS011;15813;46.932;19.658;2023-07-09T04:14:14;794.95;;;404.23;;
28623;SDS011;15813;46.932;19.658;2023-07-09T04:16:39;802.67;;;412.35;;
28623;SDS011;15813;46.932;19.658;2023-07-09T04:19:04;797.45;;;411.52;;
28623;SDS011;15813;46.932;19.658;2023-07-09T04:21:30;804.45;;;426.17;;
28623;SDS011;15813;46.932;19.658;2023-07-09T04:23:55;809.03;;;447.67;;
28623;SDS011;15813;46.932;19.658;2023-07-09T04:26:20;824.22;;;484.10;;
28623;SDS011;15813;46.932;19.658;2023-07-09T04:28:48;831.60;;;499.05;;
28623;SDS011;15813;46.932;19.658;2023-07-09T04:31:13;827.85;;;505.50;;
28623;SDS011;15813;46.932;19.658;2023-07-09T04:33:39;832.40;;;533.25;;
28623;SDS011;15813;46.932;19.658;2023-07-09T04:36:04;832.10;;;534.35;;
28623;SDS011;15813;46.932;19.658;2023-07-09T04:38:31;847.10;;;562.75;;
28623;SDS011;15813;46.932;19.658;2023-07-09T04:40:57;851.65;;;596.50;;
28623;SDS011;15813;46.932;19.658;2023-07-09T04:43:22;849.70;;;590.05;;
28623;SDS011;15813;46.932;19.658;2023-07-09T04:45:47;857.35;;;612.65;;
28623;SDS011;15813;46.932;19.658;2023-07-09T04:48:12;864.10;;;640.72;;
28623;SDS011;15813;46.932;19.658;2023-07-09T04:50:38;866.25;;;643.03;;
28623;SDS011;15813;46.932;19.658;2023-07-09T04:53:05;872.97;;;669.78;;
28623;SDS011;15813;46.932;19.658;2023-07-09T04:55:30;882.63;;;682.83;;
28623;SDS011;15813;46.932;19.658;2023-07-09T04:57:57;871.00;;;667.10;;
28623;SDS011;15813;46.932;19.658;2023-07-09T05:00:22;877.55;;;685.15;;
28623;SDS011;15813;46.932;19.658;2023-07-09T05:02:47;888.47;;;697.45;;
28623;SDS011;15813;46.932;19.658;2023-07-09T05:05:12;889.45;;;710.28;;
28623;SDS011;15813;46.932;19.658;2023-07-09T05:07:38;891.72;;;724.80;;
28623;SDS011;15813;46.932;19.658;2023-07-09T05:10:04;892.00;;;726.25;;
28623;SDS011;15813;46.932;19.658;2023-07-09T05:12:29;900.13;;;743.25;;
28623;SDS011;15813;46.932;19.658;2023-07-09T05:14:55;907.35;;;763.20;;
28623;SDS011;15813;46.932;19.658;2023-07-09T05:17:21;906.63;;;758.50;;
28623;SDS011;15813;46.932;19.658;2023-07-09T05:19:47;909.65;;;769.88;;
28623;SDS011;15813;46.932;19.658;2023-07-09T05:22:12;909.95;;;779.58;;
28623;SDS011;15813;46.932;19.658;2023-07-09T05:24:37;913.10;;;788.30;;
28623;SDS011;15813;46.932;19.658;2023-07-09T05:27:03;910.17;;;784.13;;
28623;SDS011;15813;46.932;19.658;2023-07-09T05:29:28;919.80;;;802.33;;
28623;SDS011;15813;46.932;19.658;2023-07-09T05:31:53;921.25;;;805.10;;
28623;SDS011;15813;46.932;19.658;2023-07-09T05:34:18;913.90;;;803.00;;
28623;SDS011;15813;46.932;19.658;2023-07-09T05:36:44;921.57;;;812.63;;
28623;SDS011;15813;46.932;19.658;2023-07-09T05:39:09;918.03;;;815.17;;
28623;SDS011;15813;46.932;19.658;2023-07-09T05:41:35;932.25;;;829.42;;
28623;SDS011;15813;46.932;19.658;2023-07-09T05:44:00;937.55;;;833.95;;
28623;SDS011;15813;46.932;19.658;2023-07-09T05:46:25;942.97;;;839.72;;
28623;SDS011;15813;46.932;19.658;2023-07-09T05:48:51;930.45;;;826.05;;
28623;SDS011;15813;46.932;19.658;2023-07-09T05:51:16;942.47;;;838.90;;
28623;SDS011;15813;46.932;19.658;2023-07-09T05:53:41;946.03;;;842.35;;
28623;SDS011;15813;46.932;19.658;2023-07-09T05:56:07;946.08;;;842.50;;
28623;SDS011;15813;46.932;19.658;2023-07-09T05:58:32;948.67;;;844.75;;
28623;SDS011;15813;46.932;19.658;2023-07-09T06:00:58;945.05;;;842.40;;
28623;SDS011;15813;46.932;19.658;2023-07-09T06:03:25;949.83;;;845.30;;
28623;SDS011;15813;46.932;19.658;2023-07-09T06:05:51;959.45;;;854.78;;
28623;SDS011;15813;46.932;19.658;2023-07-09T06:08:17;963.25;;;858.25;;
28623;SDS011;15813;46.932;19.658;2023-07-09T06:10:53;983.80;;;877.22;;
28623;SDS011;15813;46.932;19.658;2023-07-09T06:13:18;989.75;;;883.22;;
28623;SDS011;15813;46.932;19.658;2023-07-09T06:15:44;980.22;;;873.88;;
28623;SDS011;15813;46.932;19.658;2023-07-09T06:18:10;984.47;;;876.90;;
28623;SDS011;15813;46.932;19.658;2023-07-09T06:20:35;981.63;;;875.77;;
28623;SDS011;15813;46.932;19.658;2023-07-09T06:23:01;959.08;;;853.58;;
28623;SDS011;15813;46.932;19.658;2023-07-09T06:25:27;961.47;;;857.88;;
28623;SDS011;15813;46.932;19.658;2023-07-09T06:27:52;984.60;;;879.83;;
28623;SDS011;15813;46.932;19.658;2023-07-09T06:30:17;973.33;;;869.23;;
28623;SDS011;15813;46.932;19.658;2023-07-09T06:32:44;997.85;;;891.53;;
28623;SDS011;15813;46.932;19.658;2023-07-09T06:35:09;975.47;;;869.90;;
28623;SDS011;15813;46.932;19.658;2023-07-09T06:37:35;970.88;;;866.70;;
28623;SDS011;15813;46.932;19.658;2023-07-09T06:40:00;973.00;;;868.75;;
28623;SDS011;15813;46.932;19.658;2023-07-09T06:42:27;976.28;;;872.67;;
28623;SDS011;15813;46.932;19.658;2023-07-09T06:44:52;989.05;;;884.25;;
28623;SDS011;15813;46.932;19.658;2023-07-09T06:47:17;979.28;;;875.55;;
28623;SDS011;15813;46.932;19.658;2023-07-09T06:49:43;980.00;;;875.45;;
28623;SDS011;15813;46.932;19.658;2023-07-09T06:52:08;992.55;;;888.65;;
28623;SDS011;15813;46.932;19.658;2023-07-09T06:54:33;991.13;;;886.55;;
28623;SDS011;15813;46.932;19.658;2023-07-09T06:56:59;983.40;;;879.20;;
28623;SDS011;15813;46.932;19.658;2023-07-09T06:59:24;995.47;;;890.78;;
28623;SDS011;15813;46.932;19.658;2023-07-09T07:01:49;997.03;;;891.70;;
28623;SDS011;15813;46.932;19.658;2023-07-09T07:04:14;998.33;;;892.60;;
28623;SDS011;15813;46.932;19.658;2023-07-09T07:06:40;998.20;;;892.80;;
28623;SDS011;15813;46.932;19.658;2023-07-09T07:09:06;995.85;;;890.75;;
28623;SDS011;15813;46.932;19.658;2023-07-09T07:11:31;1009.00;;;903.45;;
28623;SDS011;15813;46.932;19.658;2023-07-09T07:13:56;1013.08;;;906.83;;
28623;SDS011;15813;46.932;19.658;2023-07-09T07:16:22;1015.45;;;908.95;;
28623;SDS011;15813;46.932;19.658;2023-07-09T07:18:48;1012.33;;;905.92;;
28623;SDS011;15813;46.932;19.658;2023-07-09T07:21:13;1028.50;;;921.33;;
28623;SDS011;15813;46.932;19.658;2023-07-09T07:23:38;1028.75;;;921.42;;
28623;SDS011;15813;46.932;19.658;2023-07-09T07:26:04;1040.13;;;929.27;;
28623;SDS011;15813;46.932;19.658;2023-07-09T07:28:29;1042.00;;;933.67;;
28623;SDS011;15813;46.932;19.658;2023-07-09T07:31:01;1042.10;;;933.55;;
28623;SDS011;15813;46.932;19.658;2023-07-09T07:33:27;1057.82;;;948.28;;
28623;SDS011;15813;46.932;19.658;2023-07-09T07:35:52;1059.82;;;950.13;;
28623;SDS011;15813;46.932;19.658;2023-07-09T07:38:17;1068.72;;;958.58;;
28623;SDS011;15813;46.932;19.658;2023-07-09T07:40:46;1063.17;;;953.60;;
28623;SDS011;15813;46.932;19.658;2023-07-09T07:43:11;1071.90;;;961.80;;
28623;SDS011;15813;46.932;19.658;2023-07-09T07:45:40;1049.55;;;941.58;;
28623;SDS011;15813;46.932;19.658;2023-07-09T07:48:05;1059.88;;;950.83;;
28623;SDS011;15813;46.932;19.658;2023-07-09T07:50:30;1074.87;;;964.17;;
28623;SDS011;15813;46.932;19.658;2023-07-09T07:52:56;1083.05;;;971.78;;
28623;SDS011;15813;46.932;19.658;2023-07-09T07:55:21;1092.50;;;980.73;;
28623;SDS011;15813;46.932;19.658;2023-07-09T07:57:46;1083.70;;;972.83;;
28623;SDS011;15813;46.932;19.658;2023-07-09T08:00:11;1087.90;;;976.75;;
28623;SDS011;15813;46.932;19.658;2023-07-09T08:02:37;1085.97;;;975.03;;
28623;SDS011;15813;46.932;19.658;2023-07-09T08:05:03;1089.65;;;978.65;;
28623;SDS011;15813;46.932;19.658;2023-07-09T08:07:28;1079.72;;;969.35;;
28623;SDS011;15813;46.932;19.658;2023-07-09T08:09:53;1090.53;;;978.87;;
28623;SDS011;15813;46.932;19.658;2023-07-09T08:12:18;1088.70;;;977.13;;
28623;SDS011;15813;46.932;19.658;2023-07-09T08:14:44;1087.27;;;976.27;;
28623;SDS011;15813;46.932;19.658;2023-07-09T08:17:10;1095.30;;;983.63;;
28623;SDS011;15813;46.932;19.658;2023-07-09T08:19:48;1097.43;;;985.47;;
28623;SDS011;15813;46.932;19.658;2023-07-09T08:22:14;1089.97;;;978.60;;
28623;SDS011;15813;46.932;19.658;2023-07-09T08:24:39;1100.60;;;988.85;;
28623;SDS011;15813;46.932;19.658;2023-07-09T08:27:06;1092.70;;;981.70;;
28623;SDS011;15813;46.932;19.658;2023-07-09T08:29:31;1095.80;;;984.03;;
28623;SDS011;15813;46.932;19.658;2023-07-09T08:31:56;1093.75;;;982.05;;
28623;SDS011;15813;46.932;19.658;2023-07-09T08:34:22;1093.20;;;982.10;;
28623;SDS011;15813;46.932;19.658;2023-07-09T08:36:47;1083.73;;;973.23;;
28623;SDS011;15813;46.932;19.658;2023-07-09T08:39:13;1084.10;;;973.72;;
28623;SDS011;15813;46.932;19.658;2023-07-09T08:46:37;1088.03;;;977.10;;
28623;SDS011;15813;46.932;19.658;2023-07-09T08:49:18;1093.97;;;982.60;;
28623;SDS011;15813;46.932;19.658;2023-07-09T08:51:45;1086.80;;;976.13;;
28623;SDS011;15813;46.932;19.658;2023-07-09T08:57:09;1079.03;;;969.08;;
28623;SDS011;15813;46.932;19.658;2023-07-09T08:59:39;1081.47;;;971.20;;
28623;SDS011;15813;46.932;19.658;2023-07-09T09:02:05;1078.72;;;968.78;;
28623;SDS011;15813;46.932;19.658;2023-07-09T09:04:38;1081.40;;;971.53;;
28623;SDS011;15813;46.932;19.658;2023-07-09T09:07:13;1078.65;;;968.83;;
28623;SDS011;15813;46.932;19.658;2023-07-09T09:09:44;1075.82;;;965.85;;
28623;SDS011;15813;46.932;19.658;2023-07-09T09:12:18;1073.97;;;964.28;;
28623;SDS011;15813;46.932;19.658;2023-07-09T09:14:56;1077.40;;;967.55;;
28623;SDS011;15813;46.932;19.658;2023-07-09T09:17:23;1072.00;;;962.47;;
28623;SDS011;15813;46.932;19.658;2023-07-09T09:19:52;1071.30;;;962.10;;
28623;SDS011;15813;46.932;19.658;2023-07-09T09:29:38;1081.38;;;971.45;;
28623;SDS011;15813;46.932;19.658;2023-07-09T09:32:15;1088.40;;;978.17;;
28623;SDS011;15813;46.932;19.658;2023-07-09T09:34:43;1086.85;;;976.47;;
28623;SDS011;15813;46.932;19.658;2023-07-09T09:37:11;1077.23;;;967.73;;
28623;SDS011;15813;46.932;19.658;2023-07-09T09:39:39;1076.38;;;966.58;;
28623;SDS011;15813;46.932;19.658;2023-07-09T09:42:07;1076.27;;;966.40;;
28623;SDS011;15813;46.932;19.658;2023-07-09T09:44:35;1079.63;;;969.15;;
28623;SDS011;15813;46.932;19.658;2023-07-09T09:47:00;1087.27;;;977.03;;
28623;SDS011;15813;46.932;19.658;2023-07-09T09:49:26;955.87;;;856.67;;
28623;SDS011;15813;46.932;19.658;2023-07-09T09:51:51;1010.60;;;908.17;;
28623;SDS011;15813;46.932;19.658;2023-07-09T09:54:20;1071.80;;;967.38;;
28623;SDS011;15813;46.932;19.658;2023-07-09T09:56:47;211.30;;;170.55;;
28623;SDS011;15813;46.932;19.658;2023-07-09T09:59:16;5.80;;;2.33;;
28623;SDS011;15813;46.932;19.658;2023-07-09T10:01:42;6.65;;;2.38;;
28623;SDS011;15813;46.932;19.658;2023-07-09T10:04:08;3.67;;;2.30;;
28623;SDS011;15813;46.932;19.658;2023-07-09T10:06:36;4.85;;;2.80;;
28623;SDS011;15813;46.932;19.658;2023-07-09T10:09:07;7.90;;;2.63;;
28623;SDS011;15813;46.932;19.658;2023-07-09T10:14:11;6.88;;;2.75;;
28623;SDS011;15813;46.932;19.658;2023-07-09T10:16:43;4.93;;;2.83;;
28623;SDS011;15813;46.932;19.658;2023-07-09T10:34:42;5.30;;;2.45;;
28623;SDS011;15813;46.932;19.658;2023-07-09T10:39:37;4.60;;;2.70;;
28623;SDS011;15813;46.932;19.658;2023-07-09T10:42:03;5.80;;;2.90;;
28623;SDS011;15813;46.932;19.658;2023-07-09T10:44:40;6.28;;;2.70;;
28623;SDS011;15813;46.932;19.658;2023-07-09T10:47:09;5.05;;;2.50;;
28623;SDS011;15813;46.932;19.658;2023-07-09T10:49:38;5.63;;;2.65;;
28623;SDS011;15813;46.932;19.658;2023-07-09T10:57:22;6.10;;;2.87;;
28623;SDS011;15813;46.932;19.658;2023-07-09T10:59:50;7.78;;;2.45;;
28623;SDS011;15813;46.932;19.658;2023-07-09T11:04:45;43.33;;;14.20;;
28623;SDS011;15813;46.932;19.658;2023-07-09T11:07:12;3.88;;;2.65;;
28623;SDS011;15813;46.932;19.658;2023-07-09T11:09:42;4.63;;;2.63;;
28623;SDS011;15813;46.932;19.658;2023-07-09T11:12:10;6.03;;;2.25;;
28623;SDS011;15813;46.932;19.658;2023-07-09T11:14:40;2.75;;;2.08;;
28623;SDS011;15813;46.932;19.658;2023-07-09T11:17:12;6.65;;;2.30;;
28623;SDS011;15813;46.932;19.658;2023-07-09T11:19:42;7.20;;;2.70;;
28623;SDS011;15813;46.932;19.658;2023-07-09T11:22:16;4.15;;;2.50;;
28623;SDS011;15813;46.932;19.658;2023-07-09T11:24:46;19.90;;;3.30;;
28623;SDS011;15813;46.932;19.658;2023-07-09T11:27:20;5.32;;;2.50;;
28623;SDS011;15813;46.932;19.658;2023-07-09T11:29:47;7.60;;;2.78;;
28623;SDS011;15813;46.932;19.658;2023-07-09T11:32:20;4.43;;;2.45;;
28623;SDS011;15813;46.932;19.658;2023-07-09T11:34:46;3.75;;;2.45;;
28623;SDS011;15813;46.932;19.658;2023-07-09T11:37:12;5.60;;;2.50;;
28623;SDS011;15813;46.932;19.658;2023-07-09T11:42:03;4.18;;;2.55;;
28623;SDS011;15813;46.932;19.658;2023-07-09T11:44:29;6.55;;;2.65;;
28623;SDS011;15813;46.932;19.658;2023-07-09T11:49:54;2.50;;;1.75;;
28623;SDS011;15813;46.932;19.658;2023-07-09T11:55:28;4.88;;;2.80;;
28623;SDS011;15813;46.932;19.658;2023-07-09T11:57:57;4.78;;;2.67;;
28623;SDS011;15813;46.932;19.658;2023-07-09T12:00:24;3.60;;;2.53;;
28623;SDS011;15813;46.932;19.658;2023-07-09T12:02:51;5.07;;;2.67;;
28623;SDS011;15813;46.932;19.658;2023-07-09T12:05:21;4.85;;;2.30;;
28623;SDS011;15813;46.932;19.658;2023-07-09T12:07:47;9.05;;;2.80;;
28623;SDS011;15813;46.932;19.658;2023-07-09T12:10:19;3.30;;;2.23;;
28623;SDS011;15813;46.932;19.658;2023-07-09T12:12:45;4.85;;;2.97;;
28623;SDS011;15813;46.932;19.658;2023-07-09T12:15:21;5.00;;;2.50;;
28623;SDS011;15813;46.932;19.658;2023-07-09T12:17:56;4.82;;;2.15;;
28623;SDS011;15813;46.932;19.658;2023-07-09T12:20:22;7.25;;;2.88;;
28623;SDS011;15813;46.932;19.658;2023-07-09T12:22:47;4.75;;;2.35;;
28623;SDS011;15813;46.932;19.658;2023-07-09T12:25:18;5.83;;;2.43;;
28623;SDS011;15813;46.932;19.658;2023-07-09T12:27:44;3.45;;;2.40;;
28623;SDS011;15813;46.932;19.658;2023-07-09T12:30:10;5.63;;;2.60;;
28623;SDS011;15813;46.932;19.658;2023-07-09T12:32:45;4.03;;;2.50;;
28623;SDS011;15813;46.932;19.658;2023-07-09T12:35:12;4.78;;;2.88;;
28623;SDS011;15813;46.932;19.658;2023-07-09T12:37:37;6.63;;;2.20;;
28623;SDS011;15813;46.932;19.658;2023-07-09T12:40:03;8.60;;;2.50;;
28623;SDS011;15813;46.932;19.658;2023-07-09T12:42:30;3.10;;;2.05;;
28623;SDS011;15813;46.932;19.658;2023-07-09T12:44:56;6.30;;;2.78;;
28623;SDS011;15813;46.932;19.658;2023-07-09T12:47:23;8.07;;;2.40;;
28623;SDS011;15813;46.932;19.658;2023-07-09T12:49:49;6.67;;;3.00;;
28623;SDS011;15813;46.932;19.658;2023-07-09T12:52:21;5.03;;;2.70;;
28623;SDS011;15813;46.932;19.658;2023-07-09T12:54:55;3.38;;;2.28;;
28623;SDS011;15813;46.932;19.658;2023-07-09T12:57:21;7.47;;;2.88;;
28623;SDS011;15813;46.932;19.658;2023-07-09T12:59:46;6.40;;;2.83;;
28623;SDS011;15813;46.932;19.658;2023-07-09T13:02:17;4.75;;;2.45;;
28623;SDS011;15813;46.932;19.658;2023-07-09T13:04:43;4.82;;;2.78;;
28623;SDS011;15813;46.932;19.658;2023-07-09T13:09:52;4.20;;;2.67;;
28623;SDS011;15813;46.932;19.658;2023-07-09T13:12:18;5.03;;;2.80;;
28623;SDS011;15813;46.932;19.658;2023-07-09T13:14:46;8.15;;;2.53;;
28623;SDS011;15813;46.932;19.658;2023-07-09T13:17:17;5.35;;;2.50;;
28623;SDS011;15813;46.932;19.658;2023-07-09T13:19:42;12.13;;;3.90;;
28623;SDS011;15813;46.932;19.658;2023-07-09T13:22:07;5.90;;;2.77;;
28623;SDS011;15813;46.932;19.658;2023-07-09T13:24:36;3.78;;;2.65;;
28623;SDS011;15813;46.932;19.658;2023-07-09T13:27:02;4.20;;;2.80;;
28623;SDS011;15813;46.932;19.658;2023-07-09T13:29:27;4.93;;;3.00;;
28623;SDS011;15813;46.932;19.658;2023-07-09T13:31:53;10.88;;;2.88;;
28623;SDS011;15813;46.932;19.658;2023-07-09T13:34:25;4.13;;;2.63;;
28623;SDS011;15813;46.932;19.658;2023-07-09T13:36:51;6.95;;;2.47;;
28623;SDS011;15813;46.932;19.658;2023-07-09T13:39:18;25.33;;;3.35;;
28623;SDS011;15813;46.932;19.658;2023-07-09T13:41:44;4.20;;;2.53;;
28623;SDS011;15813;46.932;19.658;2023-07-09T13:44:29;5.15;;;2.70;;
28623;SDS011;15813;46.932;19.658;2023-07-09T13:46:55;6.90;;;2.67;;
28623;SDS011;15813;46.932;19.658;2023-07-09T13:49:22;4.22;;;2.20;;
28623;SDS011;15813;46.932;19.658;2023-07-09T13:51:48;7.22;;;2.88;;
28623;SDS011;15813;46.932;19.658;2023-07-09T13:56:39;3.57;;;2.57;;
28623;SDS011;15813;46.932;19.658;2023-07-09T13:59:09;6.07;;;2.50;;
28623;SDS011;15813;46.932;19.658;2023-07-09T14:01:36;6.03;;;3.00;;
28623;SDS011;15813;46.932;19.658;2023-07-09T14:04:01;4.40;;;2.63;;
28623;SDS011;15813;46.932;19.658;2023-07-09T14:06:26;7.20;;;3.00;;
28623;SDS011;15813;46.932;19.658;2023-07-09T14:08:52;4.17;;;2.57;;
28623;SDS011;15813;46.932;19.658;2023-07-09T14:11:17;6.43;;;2.90;;
28623;SDS011;15813;46.932;19.658;2023-07-09T14:13:42;7.47;;;2.70;;
28623;SDS011;15813;46.932;19.658;2023-07-09T14:16:11;6.18;;;2.63;;
28623;SDS011;15813;46.932;19.658;2023-07-09T14:18:37;6.30;;;2.83;;
28623;SDS011;15813;46.932;19.658;2023-07-09T14:21:08;7.15;;;2.85;;
28623;SDS011;15813;46.932;19.658;2023-07-09T14:23:35;4.47;;;2.45;;
28623;SDS011;15813;46.932;19.658;2023-07-09T14:26:00;4.93;;;2.80;;
28623;SDS011;15813;46.932;19.658;2023-07-09T14:28:25;6.13;;;2.60;;
28623;SDS011;15813;46.932;19.658;2023-07-09T14:30:51;5.97;;;2.57;;
28623;SDS011;15813;46.932;19.658;2023-07-09T14:33:17;8.90;;;3.20;;
28623;SDS011;15813;46.932;19.658;2023-07-09T14:35:43;5.82;;;3.00;;
28623;SDS011;15813;46.932;19.658;2023-07-09T14:38:27;6.85;;;2.97;;
28623;SDS011;15813;46.932;19.658;2023-07-09T14:40:53;5.75;;;2.92;;
28623;SDS011;15813;46.932;19.658;2023-07-09T14:43:20;64.13;;;50.50;;
28623;SDS011;15813;46.932;19.658;2023-07-09T14:45:46;5.97;;;2.88;;
28623;SDS011;15813;46.932;19.658;2023-07-09T14:48:13;75.47;;;54.95;;
28623;SDS011;15813;46.932;19.658;2023-07-09T14:50:39;1060.60;;;952.80;;
28623;SDS011;15813;46.932;19.658;2023-07-09T14:53:05;1047.05;;;939.78;;
28623;SDS011;15813;46.932;19.658;2023-07-09T14:55:36;1057.38;;;949.55;;
28623;SDS011;15813;46.932;19.658;2023-07-09T14:58:01;1064.05;;;956.25;;